Time;durP1;ratioP1;P1;durP2;ratioP2;P2;SDS_P1;SDS_P2;PMS_P1;PMS_P2;Temp;Humidity;BMP_temperature;BMP_pressure;BME280_temperature;BME280_humidity;BME280_pressure;Samples;Min_cycle;Max_cycle;Signal;HPM_P1;HPM_P2
2023/09/13 00:00:15;;;;;;;;;31.00;28.50;;;;;23.26;100.00;98475.56;6235539;27;96734;-66
2023/09/13 00:03:20;;;;;;;;;29.50;26.00;;;;;23.28;100.00;98476.06;6277152;27;97554;-66
2023/09/13 00:06:23;;;;;;;;;31.00;26.00;;;;;23.26;100.00;98480.25;6253880;27;99891;-67
2023/09/13 00:09:26;;;;;;;;;29.60;28.20;;;;;23.24;100.00;98486.06;6262791;27;96340;-67
2023/09/13 00:12:29;;;;;;;;;30.00;26.00;;;;;23.21;100.00;98475.69;6247317;27;96519;-66
2023/09/13 00:15:32;;;;;;;;;24.60;23.00;;;;;23.18;100.00;98475.50;6252824;27;98707;-67
2023/09/13 00:18:37;;;;;;;;;28.60;26.00;;;;;23.15;100.00;98470.66;6270739;27;98580;-67
2023/09/13 00:21:42;;;;;;;;;26.75;25.00;;;;;23.11;100.00;98472.41;6266975;27;96732;-66
2023/09/13 00:24:46;;;;;;;;;28.40;23.80;;;;;23.02;100.00;98463.28;6271272;27;96827;-66
2023/09/13 00:27:49;;;;;;;;;23.00;23.00;;;;;22.97;100.00;98468.91;6240906;27;98426;-67
2023/09/13 00:30:52;;;;;;;;;27.60;25.60;;;;;22.90;100.00;98466.59;6257719;27;98569;-67
2023/09/13 00:33:57;;;;;;;;;28.00;25.00;;;;;22.88;100.00;98463.31;6251626;27;96498;-67
2023/09/13 00:37:00;;;;;;;;;25.60;23.20;;;;;22.82;100.00;98470.88;6243226;27;96705;-67
2023/09/13 00:40:05;;;;;;;;;27.50;26.00;;;;;22.77;100.00;98456.47;6252829;27;97534;-67
2023/09/13 00:43:08;;;;;;;;;25.00;22.80;;;;;22.76;100.00;98454.84;6263437;27;96487;-66
2023/09/13 00:46:13;;;;;;;;;29.50;26.50;;;;;22.73;100.00;98453.50;6225881;27;96683;-67
2023/09/13 00:49:17;;;;;;;;;25.00;25.00;;;;;22.68;100.00;98453.59;6262082;27;96312;-67
2023/09/13 00:52:22;;;;;;;;;27.00;24.50;;;;;22.67;100.00;98453.94;6249920;27;96493;-67
2023/09/13 00:55:27;;;;;;;;;26.20;25.20;;;;;22.67;100.00;98459.44;6286691;27;96354;-67
2023/09/13 00:58:32;;;;;;;;;27.20;25.20;;;;;22.66;100.00;98452.31;6287192;27;96444;-67
2023/09/13 01:01:35;;;;;;;;;25.00;24.00;;;;;22.63;100.00;98455.66;6265675;27;96335;-66
2023/09/13 01:04:41;;;;;;;;;27.00;25.20;;;;;22.63;100.00;98456.47;6245665;27;96561;-66
2023/09/13 01:07:48;;;;;;;;;24.60;23.20;;;;;22.65;100.00;98456.16;6243747;27;96690;-67
2023/09/13 01:10:52;;;;;;;;;25.60;24.00;;;;;22.63;100.00;98455.66;6260019;27;96469;-67
2023/09/13 01:13:58;;;;;;;;;26.00;24.00;;;;;22.64;100.00;98451.78;6247399;27;96903;-66
2023/09/13 01:17:11;;;;;;;;;27.20;24.60;;;;;22.63;100.00;98450.97;6253843;27;96471;-67
2023/09/13 01:20:23;;;;;;;;;29.00;25.00;;;;;22.60;100.00;98445.28;6270899;27;96568;-66
2023/09/13 01:23:50;;;;;;;;;27.60;25.00;;;;;22.57;100.00;98456.91;6246587;27;96841;-67
2023/09/13 01:27:13;;;;;;;;;28.00;26.40;;;;;22.51;100.00;98452.66;6249722;27;97737;-66
2023/09/13 01:30:21;;;;;;;;;26.25;24.50;;;;;22.56;100.00;98461.59;6239215;27;96596;-66
2023/09/13 01:33:25;;;;;;;;;29.00;25.60;;;;;22.56;100.00;98458.03;6266837;27;98632;-66
2023/09/13 01:36:29;;;;;;;;;25.40;23.00;;;;;22.53;100.00;98459.44;6265410;27;96538;-67
2023/09/13 01:39:33;;;;;;;;;26.00;22.00;;;;;22.51;100.00;98458.16;6247988;27;98264;-67
2023/09/13 01:42:38;;;;;;;;;27.00;26.00;;;;;22.50;100.00;98453.78;6252187;27;96734;-67
2023/09/13 01:45:43;;;;;;;;;24.80;22.60;;;;;22.48;100.00;98457.63;6285303;27;96459;-67
2023/09/13 01:48:48;;;;;;;;;29.60;25.60;;;;;22.43;100.00;98449.50;6270015;27;96681;-67
2023/09/13 01:51:52;;;;;;;;;29.40;27.00;;;;;22.40;100.00;98450.13;6288315;27;98301;-66
2023/09/13 01:54:55;;;;;;;;;30.00;26.60;;;;;22.37;100.00;98448.03;6252786;27;96771;-66
2023/09/13 01:57:58;;;;;;;;;23.40;21.40;;;;;22.34;100.00;98443.13;6264876;27;96281;-67
2023/09/13 02:01:03;;;;;;;;;28.00;27.00;;;;;22.30;100.00;98450.38;6251183;27;96453;-67
2023/09/13 02:04:07;;;;;;;;;31.40;26.00;;;;;22.27;100.00;98452.91;6258261;27;98558;-67
2023/09/13 02:07:10;;;;;;;;;27.40;25.40;;;;;22.28;100.00;98449.06;6277984;27;96674;-67
2023/09/13 02:10:13;;;;;;;;;23.20;22.80;;;;;22.27;100.00;98442.75;6282107;27;96792;-67
2023/09/13 02:13:17;;;;;;;;;25.20;22.80;;;;;22.29;100.00;98450.66;6259514;27;96416;-67
2023/09/13 02:16:22;;;;;;;;;25.00;23.00;;;;;22.27;100.00;98451.00;6250527;27;96328;-67
2023/09/13 02:19:25;;;;;;;;;26.50;24.50;;;;;22.27;100.00;98456.47;6262768;27;96598;-67
2023/09/13 02:22:28;;;;;;;;;23.60;22.00;;;;;22.21;100.00;98446.72;6244626;27;96731;-67
2023/09/13 02:25:36;;;;;;;;;24.60;23.60;;;;;22.25;100.00;98457.91;6284449;27;97242;-67
2023/09/13 02:28:39;;;;;;;;;31.50;27.75;;;;;22.23;100.00;98451.91;6247587;27;98564;-66
2023/09/13 02:31:44;;;;;;;;;26.00;25.00;;;;;22.25;100.00;98444.97;6271523;27;97036;-66
2023/09/13 02:34:47;;;;;;;;;27.00;25.00;;;;;22.28;100.00;98454.56;6245932;27;96902;-67
2023/09/13 02:37:51;;;;;;;;;25.00;24.00;;;;;22.22;100.00;98447.53;6269994;27;96848;-66
2023/09/13 02:40:54;;;;;;;;;28.00;26.40;;;;;22.19;100.00;98448.13;6265791;27;97344;-67
2023/09/13 02:43:57;;;;;;;;;27.50;25.50;;;;;22.14;100.00;98442.78;6281198;27;96610;-66
2023/09/13 02:47:02;;;;;;;;;24.00;22.00;;;;;21.95;100.00;98423.66;6244017;27;98608;-66
2023/09/13 02:50:07;;;;;;;;;24.40;24.00;;;;;22.04;100.00;98447.34;6267568;27;97038;-67
2023/09/13 02:53:10;;;;;;;;;27.20;25.00;;;;;21.99;100.00;98450.19;6246165;27;96451;-66
2023/09/13 02:56:13;;;;;;;;;26.00;26.00;;;;;21.94;100.00;98453.06;6267308;27;96527;-67
2023/09/13 02:59:17;;;;;;;;;28.67;25.67;;;;;21.90;100.00;98441.03;6270175;27;96604;-66
2023/09/13 03:02:21;;;;;;;;;25.60;24.60;;;;;21.85;100.00;98448.56;6270086;27;96777;-66
2023/09/13 03:05:25;;;;;;;;;27.00;25.00;;;;;21.84;100.00;98452.44;6238729;27;96795;-67
2023/09/13 03:08:29;;;;;;;;;29.40;26.20;;;;;21.80;100.00;98445.91;6273446;27;96675;-67
2023/09/13 03:11:32;;;;;;;;;27.75;27.00;;;;;21.78;100.00;98443.50;6259344;27;96268;-67
2023/09/13 03:14:35;;;;;;;;;26.80;22.80;;;;;21.81;100.00;98444.78;6265313;27;96928;-67
2023/09/13 03:17:40;;;;;;;;;26.00;24.20;;;;;21.77;100.00;98439.13;6253900;27;97470;-67
2023/09/13 03:20:43;;;;;;;;;25.60;23.80;;;;;21.76;100.00;98440.22;6250231;27;97048;-67
2023/09/13 03:23:48;;;;;;;;;26.20;24.20;;;;;21.73;100.00;98442.78;6262731;27;97115;-66
2023/09/13 03:26:52;;;;;;;;;23.25;22.00;;;;;21.72;100.00;98441.97;6260114;27;97451;-67
2023/09/13 03:29:55;;;;;;;;;27.40;24.00;;;;;21.75;100.00;98435.84;6269606;27;96585;-66
2023/09/13 03:33:00;;;;;;;;;30.80;27.00;;;;;21.77;100.00;98441.03;6250037;27;97599;-66
2023/09/13 03:36:03;;;;;;;;;24.20;22.00;;;;;21.76;100.00;98442.16;6245360;27;98832;-66
2023/09/13 03:39:07;;;;;;;;;29.20;27.60;;;;;21.73;100.00;98442.78;6242822;27;96841;-67
2023/09/13 03:42:10;;;;;;;;;26.00;24.50;;;;;21.67;100.00;98427.53;6269161;27;96644;-67
2023/09/13 03:45:14;;;;;;;;;25.60;24.60;;;;;21.69;100.00;98434.34;6263836;27;96579;-66
2023/09/13 03:48:18;;;;;;;;;29.75;27.75;;;;;21.63;100.00;98432.00;6254813;27;97022;-66
2023/09/13 03:51:22;;;;;;;;;28.40;27.40;;;;;21.56;100.00;98430.47;6255465;27;97466;-67
2023/09/13 03:54:25;;;;;;;;;27.00;26.00;;;;;21.56;100.00;98426.91;6234873;27;97035;-66
2023/09/13 03:57:29;;;;;;;;;25.00;23.20;;;;;21.59;100.00;98423.56;6226537;28;96665;-66
2023/09/13 04:00:33;;;;;;;;;28.00;26.00;;;;;21.56;100.00;98421.44;6243734;27;99109;-66
2023/09/13 04:03:37;;;;;;;;;24.60;23.00;;;;;21.54;100.00;98423.69;6207533;28;98533;-66
2023/09/13 04:06:41;;;;;;;;;31.00;27.00;;;;;21.55;100.00;98422.56;6222687;28;96477;-66
2023/09/13 04:09:45;;;;;;;;;28.60;26.00;;;;;21.54;100.00;98423.69;6220542;28;96841;-66
2023/09/13 04:12:49;;;;;;;;;27.80;27.20;;;;;21.55;100.00;98417.09;6210495;28;96803;-66
2023/09/13 04:15:52;;;;;;;;;26.00;25.00;;;;;21.59;100.00;98418.09;6212172;28;97644;-66
2023/09/13 04:18:57;;;;;;;;;26.00;24.00;;;;;21.63;100.00;98432.00;6213319;28;96897;-67
2023/09/13 04:22:01;;;;;;;;;27.00;26.00;;;;;21.61;100.00;98427.63;6207674;28;98435;-66
2023/09/13 04:25:06;;;;;;;;;30.00;27.00;;;;;21.61;100.00;98430.38;6197430;28;98892;-66
2023/09/13 04:28:10;;;;;;;;;28.00;24.40;;;;;21.61;100.00;98430.38;6221996;28;98547;-66
2023/09/13 04:31:15;;;;;;;;;26.50;23.50;;;;;21.61;100.00;98429.56;6211522;28;96733;-66
2023/09/13 04:34:20;;;;;;;;;28.00;26.00;;;;;21.61;100.00;98433.13;6229073;27;98475;-66
2023/09/13 04:37:25;;;;;;;;;26.00;24.40;;;;;21.63;100.00;98430.06;6246706;27;97767;-67
2023/09/13 04:40:30;;;;;;;;;24.00;22.80;;;;;21.64;100.00;98430.91;6220169;28;96691;-66
2023/09/13 04:43:34;;;;;;;;;27.00;24.00;;;;;21.64;100.00;98430.91;6204375;28;97208;-67
2023/09/13 04:46:38;;;;;;;;;26.00;24.00;;;;;21.65;100.00;98436.06;6228493;28;96276;-67
2023/09/13 04:49:42;;;;;;;;;29.80;26.00;;;;;21.67;100.00;98433.84;6234890;27;96427;-67
2023/09/13 04:52:46;;;;;;;;;24.60;24.00;;;;;21.66;100.00;98434.94;6254056;27;97456;-67
2023/09/13 04:55:49;;;;;;;;;24.00;23.00;;;;;21.71;100.00;98439.50;6268645;27;96292;-67
2023/09/13 04:58:52;;;;;;;;;27.40;23.40;;;;;21.69;100.00;98428.88;6286884;27;97048;-66
2023/09/13 05:01:55;;;;;;;;;23.80;21.80;;;;;21.70;100.00;98435.94;6258613;27;98399;-67
2023/09/13 05:05:00;;;;;;;;;25.25;23.25;;;;;21.76;100.00;98434.75;6279988;27;96548;-66
2023/09/13 05:08:03;;;;;;;;;26.00;25.80;;;;;21.83;100.00;98440.66;6265980;27;99032;-67
2023/09/13 05:11:06;;;;;;;;;25.60;24.20;;;;;21.89;100.00;98441.34;6265639;27;96605;-66
2023/09/13 05:14:11;;;;;;;;;22.00;21.00;;;;;21.96;100.00;98442.59;6259976;27;98531;-66
2023/09/13 05:17:14;;;;;;;;;26.80;24.60;;;;;22.13;100.00;98447.47;6256035;27;96914;-66
2023/09/13 05:20:19;;;;;;;;;29.20;25.20;;;;;22.31;100.00;98443.75;6263299;27;96966;-66
2023/09/13 05:23:22;;;;;;;;;28.00;26.00;;;;;22.45;100.00;98433.53;6283756;27;97680;-67
2023/09/13 05:26:26;;;;;;;;;27.00;25.00;;;;;22.51;100.00;98427.94;6262351;27;96978;-67
2023/09/13 05:29:29;;;;;;;;;27.50;26.00;;;;;22.75;100.00;98442.22;6253791;27;98684;-67
2023/09/13 05:32:32;;;;;;;;;29.00;25.00;;;;;22.96;100.00;98448.84;6267825;27;96705;-67
2023/09/13 05:35:37;;;;;;;;;25.00;23.50;;;;;23.17;100.00;98438.94;6283972;27;96423;-67
2023/09/13 05:38:42;;;;;;;;;29.00;25.60;;;;;23.34;100.00;98435.47;6276518;27;96430;-67
2023/09/13 05:41:45;;;;;;;;;27.60;25.80;;;;;23.46;100.00;98440.41;6263639;27;96678;-67
2023/09/13 05:44:48;;;;;;;;;26.40;23.40;;;;;23.55;100.00;98444.03;6282376;27;96685;-67
2023/09/13 05:47:52;;;;;;;;;24.00;23.00;;;;;23.73;100.00;98437.47;6266801;27;99118;-67
2023/09/13 05:50:57;;;;;;;;;25.75;23.75;;;;;23.98;100.00;98441.44;6290048;27;96658;-67
2023/09/13 05:54:00;;;;;;;;;27.50;24.00;;;;;24.19;100.00;98444.44;6271584;27;96415;-67
2023/09/13 05:57:03;;;;;;;;;24.60;24.00;;;;;24.40;100.00;98443.47;6264896;27;96483;-67
2023/09/13 06:00:08;;;;;;;;;26.00;25.00;;;;;24.55;100.00;98442.19;6228977;27;98703;-67
2023/09/13 06:03:14;;;;;;;;;31.00;26.00;;;;;24.80;100.00;98446.09;6255110;27;96448;-67
2023/09/13 06:06:18;;;;;;;;;25.60;22.60;;;;;25.05;100.00;98452.75;6271599;27;99233;-67
2023/09/13 06:09:22;;;;;;;;;26.00;23.60;;;;;25.33;100.00;98449.28;6289685;27;97036;-67
2023/09/13 06:12:25;;;;;;;;;28.60;26.00;;;;;25.50;100.00;98447.59;6286573;27;96371;-67
2023/09/13 06:15:28;;;;;;;;;26.80;25.40;;;;;25.62;100.00;98464.31;6267509;27;97142;-67
2023/09/13 06:18:31;;;;;;;;;27.40;25.00;;;;;25.87;100.00;98461.44;6264276;27;96248;-67
2023/09/13 06:21:36;;;;;;;;;27.00;22.50;;;;;26.17;100.00;98469.75;6263929;27;97121;-67
2023/09/13 06:24:40;;;;;;;;;23.20;21.20;;;;;26.45;100.00;98470.88;6249769;27;97294;-67
2023/09/13 06:27:43;;;;;;;;;25.00;23.00;;;;;26.81;100.00;98466.72;6254172;27;96753;-67
2023/09/13 06:30:47;;;;;;;;;21.60;21.40;;;;;27.13;100.00;98474.25;6289464;27;96679;-67
2023/09/13 06:34:05;;;;;;;;;22.60;21.00;;;;;27.37;100.00;98454.97;6261521;27;98443;-67
2023/09/13 06:37:27;;;;;;;;;24.00;20.25;;;;;27.75;100.00;98470.53;6270087;27;96673;-67
2023/09/13 06:40:33;;;;;;;;;22.80;21.00;;;;;28.12;100.00;98466.66;6269785;27;98445;-67
2023/09/13 06:43:41;;;;;;;;;21.75;20.25;;;;;28.38;100.00;98480.97;6248150;27;96659;-67
2023/09/13 06:47:04;;;;;;;;;25.60;22.00;;;;;28.61;100.00;98474.91;6270732;27;96699;-68
2023/09/13 06:50:10;;;;;;;;;23.00;20.00;;;;;28.71;100.00;98479.97;6269282;27;96972;-67
2023/09/13 06:53:17;;;;;;;;;19.25;19.25;;;;;29.03;100.00;98478.94;6280479;27;96293;-67
2023/09/13 06:56:23;;;;;;;;;22.00;18.20;;;;;29.30;100.00;98485.69;6264031;27;96906;-67
2023/09/13 06:59:33;;;;;;;;;23.40;21.40;;;;;29.59;100.00;98478.94;6245562;27;96416;-68
2023/09/13 07:02:54;;;;;;;;;19.20;17.00;;;;;29.80;100.00;98487.84;6264790;27;96387;-67
2023/09/13 07:06:03;;;;;;;;;19.00;18.00;;;;;29.97;100.00;98487.50;6260212;27;96553;-67
2023/09/13 07:09:08;;;;;;;;;17.00;15.60;;;;;30.10;100.00;98494.56;6264771;27;96370;-68
2023/09/13 07:12:11;;;;;;;;;17.00;17.00;;;;;30.47;100.00;98494.28;6261932;27;96741;-67
2023/09/13 07:15:14;;;;;;;;;18.00;16.40;;;;;30.81;100.00;98490.69;6263925;27;97572;-68
2023/09/13 07:18:18;;;;;;;;;17.00;15.00;;;;;31.07;100.00;98494.84;6263416;27;96619;-67
2023/09/13 07:21:21;;;;;;;;;17.00;15.80;;;;;31.42;100.00;98495.56;6263564;27;97448;-68
2023/09/13 07:24:25;;;;;;;;;19.20;16.00;;;;;31.67;100.00;98496.84;6260460;27;96840;-68
2023/09/13 07:27:28;;;;;;;;;18.60;17.60;;;;;31.68;100.00;98495.66;6270525;27;96794;-68
2023/09/13 07:30:32;;;;;;;;;18.33;17.00;;;;;31.96;100.00;98489.78;6270914;27;96635;-68
2023/09/13 07:33:35;;;;;;;;;16.20;16.20;;;;;32.38;100.00;98498.09;6288341;27;96672;-68
2023/09/13 07:36:39;;;;;;;;;18.60;16.00;;;;;32.70;100.00;98500.56;6270502;27;97087;-68
2023/09/13 07:39:43;;;;;;;;;16.50;16.00;;;;;32.82;100.00;98497.53;6268764;27;97317;-67
2023/09/13 07:42:47;;;;;;;;;17.40;17.00;;;;;33.19;100.00;98497.63;6244731;27;97297;-67
2023/09/13 07:45:50;;;;;;;;;15.00;14.60;;;;;33.64;100.00;98508.53;6245154;27;96657;-68
2023/09/13 07:48:54;;;;;;;;;16.00;15.00;;;;;34.04;100.00;98509.75;6249890;27;96869;-68
2023/09/13 07:51:57;;;;;;;;;14.00;13.60;;;;;34.23;100.00;98509.53;6278951;27;97110;-68
2023/09/13 07:55:01;;;;;;;;;14.60;13.60;;;;;34.76;100.00;98513.53;6268639;27;98050;-68
2023/09/13 07:58:07;;;;;;;;;17.20;16.00;;;;;35.26;100.00;98516.63;6252242;27;98497;-68
2023/09/13 08:01:11;;;;;;;;;13.80;13.20;;;;;35.74;100.00;98510.75;6287318;27;96982;-68
2023/09/13 08:04:15;;;;;;;;;15.00;14.40;;;;;36.22;100.00;98500.00;6268145;27;97139;-68
2023/09/13 08:07:18;;;;;;;;;15.00;13.00;;;;;36.55;100.00;98499.59;6268953;27;97241;-67
2023/09/13 08:10:24;;;;;;;;;15.60;14.60;;;;;36.87;100.00;98503.16;6284770;27;96698;-68
2023/09/13 08:13:27;;;;;;;;;15.00;13.50;;;;;37.13;100.00;98501.09;6252177;27;96886;-67
2023/09/13 08:16:31;;;;;;;;;15.80;14.80;;;;;37.17;100.00;98501.88;6287893;27;96532;-68
2023/09/13 08:19:34;;;;;;;;;15.80;13.80;;;;;37.38;100.00;98503.78;6287616;27;96843;-68
2023/09/13 08:22:38;;;;;;;;;13.00;12.40;;;;;37.84;100.00;98500.72;6287749;27;96636;-68
2023/09/13 08:25:45;;;;;;;;;14.00;14.00;;;;;38.22;98.44;98496.81;6267521;27;99799;-69
2023/09/13 08:28:49;;;;;;;;;14.20;13.00;;;;;38.51;95.75;98494.59;6252369;27;97102;-68
2023/09/13 08:31:53;;;;;;;;;15.20;13.80;;;;;38.80;94.41;98492.25;6268463;27;96699;-68
2023/09/13 08:34:56;;;;;;;;;19.00;15.75;;;;;39.02;95.43;98496.44;6251784;27;98699;-68
2023/09/13 08:37:59;;;;;;;;;14.00;13.00;;;;;39.06;92.65;98494.38;6260356;27;98307;-68
2023/09/13 08:41:04;;;;;;;;;13.00;12.00;;;;;39.15;91.85;98493.88;6266367;27;96417;-68
2023/09/13 08:44:08;;;;;;;;;13.40;12.00;;;;;39.50;89.97;98493.44;6268335;27;98429;-68
2023/09/13 08:47:13;;;;;;;;;14.80;13.00;;;;;39.71;87.58;98498.78;6286830;27;96488;-68
2023/09/13 08:50:23;;;;;;;;;15.00;12.00;;;;;40.01;86.58;98497.13;6286676;27;96407;-68
2023/09/13 08:53:27;;;;;;;;;12.00;12.00;;;;;39.97;85.20;98497.22;6251185;27;97299;-68
2023/09/13 08:56:32;;;;;;;;;12.80;12.00;;;;;39.93;86.62;98493.63;6251774;27;96996;-68
2023/09/13 08:59:35;;;;;;;;;14.20;13.20;;;;;40.00;85.97;98489.91;6243490;27;96304;-68
2023/09/13 09:02:42;;;;;;;;;13.40;12.00;;;;;40.19;84.94;98492.81;6276047;27;96771;-68
2023/09/13 09:05:47;;;;;;;;;13.00;12.00;;;;;40.40;82.03;98486.00;6277752;27;96284;-68
2023/09/13 09:08:51;;;;;;;;;14.00;13.00;;;;;40.32;80.92;98489.41;6286928;27;97050;-68
2023/09/13 09:12:00;;;;;;;;;12.60;12.00;;;;;40.30;82.01;98491.84;6230750;27;99317;-68
2023/09/13 09:15:06;;;;;;;;;12.00;11.50;;;;;39.90;81.27;98482.38;6261780;27;96401;-68
2023/09/13 09:18:11;;;;;;;;;12.75;12.75;;;;;39.74;81.59;98483.00;6261586;27;96547;-68
2023/09/13 09:21:16;;;;;;;;;15.00;12.60;;;;;40.10;81.10;98486.09;6243580;27;97542;-68
2023/09/13 09:24:19;;;;;;;;;13.00;12.60;;;;;40.30;78.65;98484.16;6256038;27;97237;-68
2023/09/13 09:27:24;;;;;;;;;12.50;11.25;;;;;40.38;76.04;98482.81;6277383;27;96730;-69
2023/09/13 09:30:32;;;;;;;;;14.00;14.00;;;;;40.74;74.25;98477.31;6272368;27;96579;-68
2023/09/13 09:33:38;;;;;;;;;14.75;14.00;;;;;40.95;75.23;98481.78;6275421;27;96649;-68
2023/09/13 09:36:42;;;;;;;;;14.00;13.00;;;;;41.18;75.79;98472.44;6260653;27;97041;-68
2023/09/13 09:39:45;;;;;;;;;14.00;13.00;;;;;41.41;75.98;98473.09;6264209;27;98566;-68
2023/09/13 09:42:54;;;;;;;;;14.50;13.50;;;;;41.68;75.22;98477.81;6261529;27;96650;-68
2023/09/13 09:45:58;;;;;;;;;15.20;13.60;;;;;41.74;75.15;98470.34;6290817;27;98200;-68
2023/09/13 09:49:03;;;;;;;;;15.00;14.00;;;;;41.91;71.67;98463.50;6290404;27;96481;-67
2023/09/13 09:52:08;;;;;;;;;13.60;13.60;;;;;42.17;71.11;98470.97;6290038;27;97467;-68
2023/09/13 09:55:15;;;;;;;;;14.00;13.67;;;;;42.03;72.67;98464.84;6271781;27;96980;-68
2023/09/13 09:58:20;;;;;;;;;15.00;14.00;;;;;42.01;73.92;98465.28;6272248;27;96602;-68
2023/09/13 10:01:23;;;;;;;;;14.00;13.40;;;;;41.55;72.85;98463.53;6268974;27;96864;-68
2023/09/13 10:04:27;;;;;;;;;15.00;14.00;;;;;41.49;73.98;98462.47;6266543;27;96936;-68
2023/09/13 10:07:30;;;;;;;;;14.60;13.60;;;;;41.64;74.06;98469.38;6290173;27;97493;-68
2023/09/13 10:10:34;;;;;;;;;16.40;16.00;;;;;41.79;73.58;98467.81;6271950;27;96940;-68
2023/09/13 10:13:40;;;;;;;;;14.00;13.25;;;;;41.73;74.69;98461.09;6263091;27;97945;-68
2023/09/13 10:16:44;;;;;;;;;17.00;16.60;;;;;41.90;75.54;98461.91;6265006;27;97504;-68
2023/09/13 10:19:50;;;;;;;;;16.25;15.00;;;;;41.68;74.82;98467.28;6246805;27;96542;-68
2023/09/13 10:22:57;;;;;;;;;13.67;13.33;;;;;41.40;76.40;98457.38;6265238;27;97783;-68
2023/09/13 10:26:03;;;;;;;;;15.00;13.20;;;;;41.16;76.81;98450.22;6264454;27;96558;-68
2023/09/13 10:29:12;;;;;;;;;17.00;15.00;;;;;41.02;78.32;98451.31;6245839;27;99493;-68
2023/09/13 10:32:17;;;;;;;;;15.80;15.80;;;;;41.27;75.98;98453.63;6252927;27;98379;-68
2023/09/13 10:35:22;;;;;;;;;15.00;15.00;;;;;41.51;76.94;98454.31;6270067;27;98594;-67
2023/09/13 10:38:37;;;;;;;;;18.00;16.00;;;;;41.73;74.67;98443.31;6289542;27;96539;-67
2023/09/13 10:42:01;;;;;;;;;17.00;15.60;;;;;41.66;75.07;98441.44;6267390;27;96748;-67
2023/09/13 10:45:07;;;;;;;;;19.00;17.00;;;;;41.77;76.34;98447.66;6264189;27;98044;-67
2023/09/13 10:48:11;;;;;;;;;19.25;17.00;;;;;41.90;75.96;98451.38;6249574;27;97412;-68
2023/09/13 10:51:16;;;;;;;;;17.60;15.60;;;;;42.06;75.73;98444.94;6267889;27;96368;-68
2023/09/13 10:54:21;;;;;;;;;18.00;16.60;;;;;41.82;71.16;98452.78;6266783;27;97184;-67
2023/09/13 10:57:26;;;;;;;;;18.25;17.25;;;;;41.49;74.07;98451.94;6267311;27;96804;-68
2023/09/13 11:00:32;;;;;;;;;16.00;15.00;;;;;41.46;73.28;98455.66;6275589;27;97238;-67
2023/09/13 11:03:35;;;;;;;;;18.00;17.00;;;;;41.43;75.27;98447.22;6261710;27;98495;-67
2023/09/13 11:06:39;;;;;;;;;15.80;14.80;;;;;41.39;74.80;98450.13;6273912;27;96814;-67
2023/09/13 11:09:45;;;;;;;;;15.50;14.00;;;;;41.48;74.38;98447.53;6269854;27;97317;-67
2023/09/13 11:12:50;;;;;;;;;17.00;16.00;;;;;41.72;75.45;98444.53;6275852;27;96473;-67
2023/09/13 11:15:55;;;;;;;;;18.00;16.50;;;;;42.02;75.15;98447.06;6246835;27;96980;-69
2023/09/13 11:19:03;;;;;;;;;18.00;17.00;;;;;42.14;70.66;98443.50;6262349;27;97568;-67
2023/09/13 11:22:06;;;;;;;;;16.00;15.00;;;;;41.80;72.21;98437.47;6277595;27;97424;-67
2023/09/13 11:25:10;;;;;;;;;16.00;15.50;;;;;41.64;72.71;98440.31;6255504;27;98193;-67
2023/09/13 11:28:44;;;;;;;;;15.00;14.00;;;;;41.92;71.19;98437.59;6269829;27;98115;-67
2023/09/13 11:31:59;;;;;;;;;16.00;16.00;;;;;42.25;71.72;98434.72;6271249;27;96300;-67
2023/09/13 11:35:05;;;;;;;;;16.20;14.80;;;;;42.50;71.95;98439.75;6279320;27;96636;-67
2023/09/13 11:38:08;;;;;;;;;16.00;16.00;;;;;42.47;69.20;98438.59;6267608;27;98495;-67
2023/09/13 11:41:17;;;;;;;;;16.80;15.40;;;;;42.55;69.24;98440.00;6267270;27;97303;-67
2023/09/13 11:44:22;;;;;;;;;15.50;15.00;;;;;42.75;68.91;98437.84;6269471;27;96746;-67
2023/09/13 11:47:37;;;;;;;;;12.00;12.00;;;;;42.84;69.43;98439.22;6272711;27;96620;-68
2023/09/13 11:50:48;;;;;;;;;17.00;16.00;;;;;42.57;68.98;98433.91;6276625;27;96711;-68
2023/09/13 11:53:54;;;;;;;;;15.20;14.00;;;;;42.60;71.13;98430.16;6279305;27;96725;-68
2023/09/13 11:57:04;;;;;;;;;17.60;16.80;;;;;42.70;71.07;98432.72;6267942;27;98356;-68
2023/09/13 12:00:26;;;;;;;;;15.60;14.60;;;;;42.87;70.05;98432.66;6240556;27;98450;-68
2023/09/13 12:03:35;;;;;;;;;16.75;16.50;;;;;42.77;69.16;98431.72;6274738;27;96728;-68
2023/09/13 12:06:58;;;;;;;;;16.00;15.00;;;;;42.64;68.74;98425.19;6281501;27;96284;-68
2023/09/13 12:10:07;;;;;;;;;15.00;12.50;;;;;42.70;70.64;98438.41;6262601;27;97280;-68
2023/09/13 12:13:13;;;;;;;;;17.00;16.00;;;;;42.55;71.07;98437.19;6246567;27;99259;-68
2023/09/13 12:16:36;;;;;;;;;16.00;15.40;;;;;42.16;72.71;98426.06;6266935;27;97140;-68
2023/09/13 12:19:41;;;;;;;;;16.00;14.60;;;;;42.15;70.84;98430.94;6263093;27;97160;-68
2023/09/13 12:22:44;;;;;;;;;15.00;14.00;;;;;41.96;70.78;98428.22;6260663;27;97411;-68
2023/09/13 12:25:49;;;;;;;;;15.00;15.00;;;;;41.67;68.15;98416.75;6256664;27;98416;-68
2023/09/13 12:28:54;;;;;;;;;16.40;15.40;;;;;41.31;69.37;98422.41;6268814;27;97142;-69
2023/09/13 12:31:59;;;;;;;;;16.00;14.60;;;;;40.98;72.57;98430.78;6287453;27;96366;-68
2023/09/13 12:35:04;;;;;;;;;14.80;14.00;;;;;40.94;72.66;98421.59;6268703;27;97062;-69
2023/09/13 12:38:08;;;;;;;;;16.00;16.00;;;;;40.97;74.07;98420.72;6269114;27;97651;-68
2023/09/13 12:41:12;;;;;;;;;13.67;13.67;;;;;40.78;70.86;98421.53;6265234;27;97167;-68
2023/09/13 12:44:18;;;;;;;;;14.00;13.20;;;;;40.68;71.77;98426.16;6264090;27;96724;-69
2023/09/13 12:47:21;;;;;;;;;14.50;13.50;;;;;40.50;72.31;98422.06;6260861;27;98380;-68
2023/09/13 12:50:26;;;;;;;;;15.00;15.00;;;;;40.60;73.17;98410.56;6238550;27;98119;-69
2023/09/13 12:53:37;;;;;;;;;15.00;14.40;;;;;40.48;73.37;98411.19;6230083;27;99967;-68
2023/09/13 12:56:41;;;;;;;;;13.00;12.20;;;;;40.58;70.51;98415.84;6245136;27;96685;-68
2023/09/13 12:59:45;;;;;;;;;13.25;12.25;;;;;40.55;70.72;98410.25;6272459;27;96864;-70
2023/09/13 13:02:48;;;;;;;;;16.40;14.40;;;;;40.44;71.06;98407.63;6236848;27;97874;-68
2023/09/13 13:05:55;;;;;;;;;11.50;11.50;;;;;40.21;66.62;98402.84;6255064;27;97046;-68
2023/09/13 13:09:06;;;;;;;;;13.00;12.40;;;;;40.25;69.71;98406.38;6236380;27;97356;-68
2023/09/13 13:12:15;;;;;;;;;14.00;13.50;;;;;40.15;68.83;98400.91;6275506;27;97591;-69
2023/09/13 13:15:19;;;;;;;;;15.00;15.00;;;;;40.14;70.33;98399.28;6240729;27;97509;-69
2023/09/13 13:18:23;;;;;;;;;13.20;12.20;;;;;40.13;72.71;98398.50;6264683;27;96925;-68
2023/09/13 13:21:28;;;;;;;;;15.40;15.00;;;;;40.13;73.12;98398.50;6250106;27;96787;-68
2023/09/13 13:24:41;;;;;;;;;15.60;14.00;;;;;40.04;73.50;98397.47;6254047;27;96523;-69
2023/09/13 13:27:45;;;;;;;;;14.75;13.00;;;;;39.83;74.10;98398.66;6275561;27;98103;-69
2023/09/13 13:30:48;;;;;;;;;13.40;12.00;;;;;39.45;71.36;98400.81;6285997;27;96299;-68
2023/09/13 13:33:51;;;;;;;;;14.00;13.00;;;;;39.07;73.45;98400.13;6287248;27;97046;-68
2023/09/13 13:36:56;;;;;;;;;13.20;13.20;;;;;38.94;75.88;98394.28;6265806;27;96666;-68
2023/09/13 13:39:59;;;;;;;;;17.40;15.00;;;;;38.72;76.40;98392.09;6271776;27;96896;-69
2023/09/13 13:43:02;;;;;;;;;13.20;12.80;;;;;38.52;77.58;98389.94;6276997;27;96552;-68
2023/09/13 13:46:08;;;;;;;;;13.80;13.00;;;;;38.59;78.08;98389.06;6270122;27;96904;-68
2023/09/13 13:49:16;;;;;;;;;14.80;13.80;;;;;38.48;76.23;98386.34;6290740;27;97465;-68
2023/09/13 13:52:21;;;;;;;;;14.00;14.00;;;;;38.29;77.77;98380.50;6266482;27;98939;-68
2023/09/13 13:55:24;;;;;;;;;13.20;13.00;;;;;38.20;78.04;98383.81;6274056;27;97193;-68
2023/09/13 13:58:28;;;;;;;;;15.00;14.00;;;;;38.00;78.89;98374.38;6267411;27;98029;-68
2023/09/13 14:01:31;;;;;;;;;13.00;12.60;;;;;37.94;79.33;98364.75;6245704;27;96849;-68
2023/09/13 14:04:34;;;;;;;;;13.00;13.00;;;;;37.86;80.84;98364.03;6229581;27;98533;-69